createdAt,value
2022-09-10T00:02:12.731Z,100011.63
2022-09-10T00:04:39.509Z,100010.13
2022-09-10T00:07:06.457Z,100015.00
2022-09-10T00:09:33.195Z,100008.63
2022-09-10T00:11:59.939Z,100014.03
2022-09-10T00:14:26.851Z,100007.94
2022-09-10T00:16:54.875Z,100012.28
2022-09-10T00:19:22.160Z,100004.59
2022-09-10T00:21:50.701Z,100002.50
2022-09-10T00:24:17.476Z,100003.72
2022-09-10T00:26:44.613Z,99999.38
2022-09-10T00:29:12.895Z,100004.28
2022-09-10T00:31:40.157Z,100007.19
2022-09-10T00:34:07.493Z,100001.25
2022-09-10T00:36:39.690Z,100005.22
2022-09-10T00:39:10.292Z,100002.25
2022-09-10T00:41:40.399Z,99996.22
2022-09-10T00:44:30.593Z,99995.44
2022-09-10T00:46:59.308Z,99983.53
2022-09-10T00:49:35.975Z,99994.88
2022-09-10T00:52:04.593Z,99991.25
2022-09-10T00:54:33.773Z,99984.28
2022-09-10T00:57:06.669Z,99987.63
2022-09-10T00:59:34.404Z,99973.91
2022-09-10T01:02:02.297Z,99972.41
2022-09-10T01:04:29.087Z,99970.63
2022-09-10T01:06:56.235Z,99970.41
2022-09-10T01:09:24.559Z,99965.91
2022-09-10T01:12:29.707Z,99967.13
2022-09-10T01:15:01.926Z,99966.06
2022-09-10T01:17:40.607Z,99963.56
2022-09-10T01:20:25.791Z,99960.94
2022-09-10T01:23:24.964Z,99966.00
2022-09-10T01:26:11.620Z,99947.84
2022-09-10T01:28:50.452Z,99950.31
2022-09-10T01:31:37.968Z,99945.50
2022-09-10T01:34:18.913Z,99948.56
2022-09-10T01:36:49.121Z,99942.84
2022-09-10T01:39:18.950Z,99939.28
2022-09-10T01:41:45.983Z,99929.88
2022-09-10T01:44:43.190Z,99927.75
2022-09-10T01:47:31.723Z,99925.69
2022-09-10T01:50:19.172Z,99924.69
2022-09-10T01:52:59.935Z,99916.13
2022-09-10T01:55:43.719Z,99916.31
2022-09-10T01:58:24.617Z,99930.47
2022-09-10T02:01:14.848Z,99943.47
2022-09-10T02:03:46.888Z,99928.03
2022-09-10T02:06:17.216Z,99910.13
2022-09-10T02:08:47.073Z,99897.53
2022-09-10T02:11:14.382Z,99894.63
2022-09-10T02:13:44.968Z,99893.88
2022-09-10T02:16:22.084Z,99896.44
2022-09-10T02:18:49.743Z,99901.63
2022-09-10T02:21:17.105Z,99904.34
2022-09-10T02:23:53.750Z,99901.28
2022-09-10T02:26:20.782Z,99900.13
2022-09-10T02:28:50.271Z,99889.47
2022-09-10T02:31:18.646Z,99888.41
2022-09-10T02:33:45.750Z,99890.81
2022-09-10T02:36:12.571Z,99899.97
2022-09-10T02:38:39.500Z,99901.03
2022-09-10T02:41:06.525Z,99898.06
2022-09-10T02:43:38.139Z,99886.19
2022-09-10T02:46:09.182Z,99881.69
2022-09-10T02:48:36.207Z,99879.91
2022-09-10T02:51:03.007Z,99879.69
2022-09-10T02:53:31.679Z,99881.97
2022-09-10T02:55:59.599Z,99883.31
2022-09-10T02:58:26.722Z,99895.34
2022-09-10T03:00:53.618Z,99895.09
2022-09-10T03:03:20.644Z,99895.66
2022-09-10T03:05:47.438Z,99900.16
2022-09-10T03:08:14.149Z,99900.22
2022-09-10T03:10:41.094Z,99901.47
2022-09-10T03:13:08.146Z,99918.59
2022-09-10T03:15:34.880Z,99915.97
2022-09-10T03:18:01.839Z,99907.41
2022-09-10T03:20:28.579Z,99904.47
2022-09-10T03:22:55.409Z,99905.81
2022-09-10T03:25:22.810Z,99902.75
2022-09-10T03:27:49.700Z,99903.47
2022-09-10T03:30:16.700Z,99905.31
2022-09-10T03:32:44.282Z,99907.28
2022-09-10T03:35:11.137Z,99907.22
2022-09-10T03:37:37.917Z,99898.81
2022-09-10T03:40:05.905Z,99902.84
2022-09-10T03:42:32.686Z,99910.72
2022-09-10T03:44:59.454Z,99902.31
2022-09-10T03:47:29.304Z,99904.50
2022-09-10T03:49:56.215Z,99899.03
2022-09-10T03:52:23.066Z,99898.25
2022-09-10T03:54:53.041Z,99901.38
2022-09-10T03:57:19.771Z,99899.22
2022-09-10T03:59:46.580Z,99895.03
2022-09-10T04:02:14.667Z,99898.00
2022-09-10T04:04:41.511Z,99889.16
2022-09-10T04:07:10.143Z,99898.47
2022-09-10T04:09:37.348Z,99891.81
2022-09-10T04:12:04.386Z,99890.56
2022-09-10T04:14:31.283Z,99885.81
2022-09-10T04:16:58.988Z,99899.09
2022-09-10T04:19:27.619Z,99911.03
2022-09-10T04:21:54.803Z,99897.03
2022-09-10T04:24:21.783Z,99897.88
2022-09-10T04:26:48.527Z,99913.59
2022-09-10T04:29:15.275Z,99905.53
2022-09-10T04:31:42.312Z,99893.59
2022-09-10T04:34:09.150Z,99902.97
2022-09-10T04:36:36.057Z,99912.22
2022-09-10T04:39:03.360Z,99915.94
2022-09-10T04:41:30.276Z,99924.47
2022-09-10T04:43:57.110Z,99927.03
2022-09-10T04:46:24.212Z,99920.84
2022-09-10T04:48:51.981Z,99920.59
2022-09-10T04:51:18.958Z,99923.69
2022-09-10T04:53:46.226Z,99930.16
2022-09-10T04:56:13.465Z,99927.88
2022-09-10T04:58:41.240Z,99918.44
2022-09-10T05:01:08.612Z,99911.47
2022-09-10T05:03:36.100Z,99926.47
2022-09-10T05:06:03.587Z,99922.69
2022-09-10T05:08:31.019Z,99924.94
2022-09-10T05:10:58.214Z,99930.25
2022-09-10T05:13:24.974Z,99913.16
2022-09-10T05:15:51.911Z,99919.34
2022-09-10T05:18:18.607Z,99910.78
2022-09-10T05:20:45.445Z,99915.00
2022-09-10T05:23:12.626Z,99915.00
2022-09-10T05:25:39.361Z,99914.63
2022-09-10T05:28:06.259Z,99923.56
2022-09-10T05:30:34.296Z,99928.50
2022-09-10T05:33:01.791Z,99931.31
2022-09-10T05:35:29.314Z,99929.63
2022-09-10T05:37:57.235Z,99941.56
2022-09-10T05:40:25.469Z,99943.13
2022-09-10T05:42:53.093Z,99937.16
2022-09-10T05:45:20.340Z,99929.00
2022-09-10T05:47:47.460Z,99922.25
2022-09-10T05:50:14.663Z,99936.88
2022-09-10T05:52:41.640Z,99927.59
2022-09-10T05:55:09.256Z,99934.00
2022-09-10T05:57:35.972Z,99929.25
2022-09-10T06:00:06.400Z,99939.75
2022-09-10T06:02:33.535Z,99942.13
2022-09-10T06:05:00.763Z,99938.75
2022-09-10T06:07:28.888Z,99943.78
2022-09-10T06:09:56.552Z,99934.44
2022-09-10T06:12:23.987Z,99931.91
2022-09-10T06:14:50.971Z,99940.56
2022-09-10T06:17:17.756Z,99930.72
2022-09-10T06:19:45.876Z,99932.47
2022-09-10T06:22:15.149Z,99936.97
2022-09-10T06:24:42.223Z,99926.53
2022-09-10T06:27:09.731Z,99924.94
2022-09-10T06:29:36.885Z,99932.19
2022-09-10T06:32:04.166Z,99929.25
2022-09-10T06:34:31.447Z,99930.88
2022-09-10T06:36:58.561Z,99925.78
2022-09-10T06:39:25.298Z,99931.41
2022-09-10T06:41:53.475Z,99933.56
2022-09-10T06:44:22.435Z,99934.22
2022-09-10T06:49:36.720Z,99932.59
2022-09-10T06:52:03.544Z,99935.59
2022-09-10T06:54:30.337Z,99933.19
2022-09-10T06:56:58.041Z,99941.03
2022-09-10T06:59:24.986Z,99942.41
2022-09-10T07:01:51.861Z,99952.63
2022-09-10T07:04:18.907Z,99947.28
2022-09-10T07:06:46.632Z,99953.94
2022-09-10T07:09:14.306Z,99958.50
2022-09-10T07:11:41.899Z,99960.50
2022-09-10T07:14:12.661Z,99961.59
2022-09-10T07:16:44.373Z,99957.84
2022-09-10T07:19:15.172Z,99961.53
2022-09-10T07:21:42.211Z,99962.69
2022-09-10T07:24:10.630Z,99966.66
2022-09-10T07:26:37.639Z,99970.09
2022-09-10T07:29:05.073Z,99969.78
2022-09-10T07:31:34.449Z,99957.69
2022-09-10T07:34:02.866Z,99960.13
2022-09-10T07:36:30.411Z,99966.06
2022-09-10T07:38:58.026Z,99971.97
2022-09-10T07:41:29.988Z,99966.28
2022-09-10T07:43:57.735Z,99985.22
2022-09-10T07:46:25.659Z,99982.03
2022-09-10T07:48:55.652Z,99986.94
2022-09-10T07:51:23.271Z,99988.72
2022-09-10T07:53:55.194Z,99986.81
2022-09-10T07:56:23.372Z,99994.06
2022-09-10T07:58:51.494Z,99994.03
2022-09-10T08:01:19.771Z,99998.88
2022-09-10T08:03:47.273Z,99998.88
2022-09-10T08:06:14.754Z,99999.66
2022-09-10T08:08:43.099Z,99992.72
2022-09-10T08:11:16.665Z,99995.75
2022-09-10T08:13:46.645Z,99997.72
2022-09-10T08:16:19.283Z,100004.66
2022-09-10T08:18:51.188Z,99998.59
2022-09-10T08:21:19.334Z,100003.28
2022-09-10T08:23:51.133Z,99995.38
2022-09-10T08:26:18.332Z,99998.44
2022-09-10T08:28:48.364Z,99996.66
2022-09-10T08:31:16.349Z,100001.63
2022-09-10T08:33:51.744Z,100003.28
2022-09-10T08:36:19.739Z,100000.16
2022-09-10T08:38:46.532Z,100006.22
2022-09-10T08:41:38.423Z,100011.03
2022-09-10T08:44:20.432Z,100005.09
2022-09-10T08:46:52.455Z,100005.31
2022-09-10T08:51:18.855Z,100006.53
2022-09-10T08:53:59.403Z,100000.19
2022-09-10T08:56:27.879Z,99999.09
2022-09-10T08:59:03.121Z,99998.63
2022-09-10T09:01:30.481Z,99992.13
2022-09-10T09:04:01.626Z,99994.69
2022-09-10T09:06:44.309Z,100005.59
2022-09-10T09:09:15.735Z,100000.91
2022-09-10T09:11:54.886Z,100009.03
2022-09-10T09:14:34.127Z,100010.13
2022-09-10T09:17:05.194Z,100015.75
2022-09-10T09:19:34.148Z,100012.91
2022-09-10T09:22:13.127Z,100012.59
2022-09-10T09:24:56.593Z,100009.41
2022-09-10T09:27:27.488Z,100008.41
2022-09-10T09:30:06.581Z,100008.75
2022-09-10T09:32:35.830Z,100012.63
2022-09-10T09:35:24.457Z,100010.25
2022-09-10T09:38:17.542Z,100001.78
2022-09-10T09:40:50.487Z,100010.91
2022-09-10T09:43:32.444Z,100000.19
2022-09-10T09:46:01.178Z,99994.63
2022-09-10T09:48:37.607Z,100001.03
2022-09-10T09:51:05.312Z,99997.31
2022-09-10T09:53:32.055Z,99990.81
2022-09-10T09:56:01.316Z,99982.88
2022-09-10T09:58:32.063Z,99985.69
2022-09-10T10:01:05.058Z,99979.44
2022-09-10T10:03:35.463Z,99977.13
2022-09-10T10:06:08.401Z,99974.03
2022-09-10T10:08:42.519Z,99956.59
2022-09-10T10:11:09.735Z,99961.19
2022-09-10T10:13:40.198Z,99958.91
2022-09-10T10:16:35.680Z,99958.56
2022-09-10T10:19:03.504Z,99953.88
2022-09-10T10:21:32.977Z,99959.47
2022-09-10T10:24:00.582Z,99962.13
2022-09-10T10:26:33.128Z,99954.66
2022-09-10T10:29:06.398Z,99953.28
2022-09-10T10:31:41.368Z,99952.63
2022-09-10T10:34:16.631Z,99958.84
2022-09-10T10:37:02.325Z,99956.41
2022-09-10T10:39:57.033Z,99949.22
2022-09-10T10:42:42.467Z,99949.78
2022-09-10T10:45:10.620Z,99955.13
2022-09-10T10:48:09.962Z,99931.97
2022-09-10T10:50:39.772Z,99921.03
2022-09-10T10:53:12.489Z,99933.94
2022-09-10T10:55:50.347Z,99923.56
2022-09-10T10:58:40.150Z,99933.06
2022-09-10T11:01:17.128Z,99933.63
2022-09-10T11:03:53.399Z,99939.13
2022-09-10T11:06:24.604Z,99932.97
2022-09-10T11:09:04.940Z,99934.75
2022-09-10T11:11:50.332Z,99935.25
2022-09-10T11:14:29.319Z,99938.19
2022-09-10T11:17:34.943Z,99927.16
2022-09-10T11:20:31.712Z,99930.63
2022-09-10T11:23:29.620Z,99929.59
2022-09-10T11:26:03.726Z,99926.91
2022-09-10T11:28:54.349Z,99909.41
2022-09-10T11:31:32.377Z,99931.91
2022-09-10T11:34:28.640Z,99925.88
2022-09-10T11:37:40.566Z,99923.16
2022-09-10T11:40:18.633Z,99918.81
2022-09-10T11:42:53.057Z,99917.94
2022-09-10T11:45:36.211Z,99919.00
2022-09-10T11:48:07.797Z,99911.16
2022-09-10T11:50:48.896Z,99913.97
2022-09-10T11:53:18.856Z,99909.81
2022-09-10T11:55:52.870Z,99907.09
2022-09-10T11:58:39.471Z,99911.19
2022-09-10T12:01:15.571Z,99903.53
2022-09-10T12:04:11.195Z,99904.97
2022-09-10T12:06:50.076Z,99900.25
2022-09-10T12:09:52.272Z,99898.25
2022-09-10T12:12:31.501Z,99896.00
2022-09-10T12:14:59.542Z,99903.38
2022-09-10T12:17:34.203Z,99912.75
2022-09-10T12:20:04.588Z,99911.50
2022-09-10T12:22:39.323Z,99904.41
2022-09-10T12:25:16.308Z,99913.16
2022-09-10T12:27:49.038Z,99908.28
2022-09-10T12:30:25.005Z,99907.81
2022-09-10T12:32:55.447Z,99907.03
2022-09-10T12:35:31.304Z,99902.25
2022-09-10T12:38:35.810Z,99911.25
2022-09-10T12:41:04.774Z,99903.06
2022-09-10T12:43:40.425Z,99911.00
2022-09-10T12:46:07.911Z,99912.94
2022-09-10T12:48:50.809Z,99908.56
2022-09-10T12:51:20.500Z,99900.09
2022-09-10T12:54:05.138Z,99911.63
2022-09-10T12:56:41.138Z,99900.13
2022-09-10T12:59:26.340Z,99900.50
2022-09-10T13:01:54.640Z,99894.50
2022-09-10T13:04:30.459Z,99896.28
2022-09-10T13:07:02.389Z,99883.47
2022-09-10T13:09:37.016Z,99880.91
2022-09-10T13:12:18.273Z,99878.88
2022-09-10T13:14:53.731Z,99873.88
2022-09-10T13:17:54.469Z,99886.00
2022-09-10T13:20:21.115Z,99883.91
2022-09-10T13:23:04.498Z,99880.16
2022-09-10T13:25:36.626Z,99887.47
2022-09-10T13:28:29.842Z,99884.66
2022-09-10T13:31:04.930Z,99887.28
2022-09-10T13:33:44.043Z,99893.97
2022-09-10T13:36:48.221Z,99895.16
2022-09-10T13:39:29.893Z,99909.94
2022-09-10T13:42:49.219Z,99897.13
2022-09-10T13:45:29.153Z,99890.94
2022-09-10T13:48:09.881Z,99885.03
2022-09-10T13:50:49.265Z,99883.59
2022-09-10T13:53:18.811Z,99888.31
2022-09-10T13:56:01.131Z,99873.47
2022-09-10T13:58:34.912Z,99873.91
2022-09-10T14:01:04.007Z,99873.75
2022-09-10T14:03:36.754Z,99880.88
2022-09-10T14:06:10.174Z,99873.13
2022-09-10T14:08:49.095Z,99872.78
2022-09-10T14:11:38.789Z,99863.16
2022-09-10T14:14:09.711Z,99873.47
2022-09-10T14:16:58.275Z,99864.47
2022-09-10T14:19:40.995Z,99868.41
2022-09-10T14:22:15.584Z,99862.06
2022-09-10T14:24:49.451Z,99863.97
2022-09-10T14:27:31.351Z,99860.91
2022-09-10T14:30:16.864Z,99861.00
2022-09-10T14:32:44.347Z,99860.59
2022-09-10T14:35:43.497Z,99856.81
2022-09-10T14:38:34.188Z,99860.09
2022-09-10T14:41:08.014Z,99860.50
2022-09-10T14:43:38.429Z,99855.72
2022-09-10T14:46:08.141Z,99862.38
2022-09-10T14:48:37.380Z,99862.22
2022-09-10T14:51:17.600Z,99861.38
2022-09-10T14:53:46.629Z,99881.09
2022-09-10T14:56:33.864Z,99868.16
2022-09-10T14:59:03.697Z,99859.63
2022-09-10T15:01:30.884Z,99871.13
2022-09-10T15:03:59.241Z,99864.94
2022-09-10T15:06:26.915Z,99867.59
2022-09-10T15:08:56.267Z,99865.78
2022-09-10T15:11:28.129Z,99869.75
2022-09-10T15:13:56.167Z,99875.00
2022-09-10T15:16:25.752Z,99876.63
2022-09-10T15:18:52.524Z,99873.56
2022-09-10T15:21:19.972Z,99878.03
2022-09-10T15:23:47.916Z,99874.38
2022-09-10T15:26:15.289Z,99875.94
2022-09-10T15:28:42.219Z,99882.97
2022-09-10T15:31:10.438Z,99890.47
2022-09-10T15:33:37.687Z,99892.94
2022-09-10T15:36:04.961Z,99897.47
2022-09-10T15:38:31.779Z,99894.31
2022-09-10T15:41:13.872Z,99902.13
2022-09-10T15:43:45.694Z,99900.78
2022-09-10T15:46:14.620Z,99900.47
2022-09-10T15:48:42.840Z,99912.06
2022-09-10T15:51:21.412Z,99915.66
2022-09-10T15:53:49.779Z,99923.91
2022-09-10T15:56:17.316Z,99918.47
2022-09-10T15:58:52.102Z,99927.94
2022-09-10T16:01:19.189Z,99931.28
2022-09-10T16:03:50.199Z,99935.31
2022-09-10T16:06:19.418Z,99941.59
2022-09-10T16:08:57.083Z,99943.91
2022-09-10T16:11:25.379Z,99956.53
2022-09-10T16:13:52.606Z,99962.72
2022-09-10T16:16:21.970Z,99959.78
2022-09-10T16:18:51.654Z,99964.84
2022-09-10T16:21:24.265Z,99956.28
2022-09-10T16:23:52.723Z,99959.78
2022-09-10T16:26:23.631Z,99970.44
2022-09-10T16:28:51.953Z,99962.75
2022-09-10T16:31:24.175Z,99965.69
2022-09-10T16:33:55.008Z,99958.53
2022-09-10T16:36:23.598Z,99958.72
2022-09-10T16:38:56.640Z,99955.09
2022-09-10T16:41:26.423Z,99962.84
2022-09-10T16:43:53.644Z,99954.00
2022-09-10T16:46:20.639Z,99963.63
2022-09-10T16:48:51.753Z,99966.66
2022-09-10T16:51:20.653Z,99958.91
2022-09-10T16:53:56.780Z,99962.50
2022-09-10T16:56:25.548Z,99976.09
2022-09-10T16:58:53.119Z,99962.88
2022-09-10T17:01:20.870Z,99974.25
2022-09-10T17:03:49.878Z,99970.09
2022-09-10T17:06:23.227Z,99982.19
2022-09-10T17:08:50.967Z,99980.66
2022-09-10T17:11:19.796Z,99982.28
2022-09-10T17:13:46.976Z,99997.03
2022-09-10T17:16:25.560Z,99981.81
2022-09-10T17:18:59.410Z,99994.44
2022-09-10T17:21:28.330Z,99991.94
2022-09-10T17:23:56.202Z,99990.59
2022-09-10T17:26:24.957Z,99993.50
2022-09-10T17:28:55.860Z,99998.69
2022-09-10T17:31:23.440Z,100012.59
2022-09-10T17:33:51.007Z,100012.44
2022-09-10T17:36:18.342Z,100016.78
2022-09-10T17:38:46.059Z,100012.25
2022-09-10T17:41:14.606Z,100022.31
2022-09-10T17:43:43.806Z,100017.44
2022-09-10T17:46:14.909Z,100029.03
2022-09-10T17:48:45.760Z,100029.53
2022-09-10T17:51:21.216Z,100024.19
2022-09-10T17:53:48.776Z,100036.22
2022-09-10T17:56:19.030Z,100038.72
2022-09-10T17:58:50.812Z,100042.25
2022-09-10T18:01:24.167Z,100047.72
2022-09-10T18:03:52.389Z,100053.25
2022-09-10T18:06:21.584Z,100064.50
2022-09-10T18:08:50.477Z,100062.97
2022-09-10T18:11:24.085Z,100073.69
2022-09-10T18:13:52.875Z,100069.63
2022-09-10T18:16:23.809Z,100070.50
2022-09-10T18:19:00.091Z,100078.72
2022-09-10T18:21:32.738Z,100081.72
2022-09-10T18:24:06.513Z,100089.09
2022-09-10T18:26:37.245Z,100088.94
2022-09-10T18:29:07.823Z,100088.66
2022-09-10T18:31:37.839Z,100083.75
2022-09-10T18:34:06.885Z,100079.56
2022-09-10T18:36:34.998Z,100087.91
2022-09-10T18:39:03.220Z,100087.25
2022-09-10T18:41:31.594Z,100086.91
2022-09-10T18:44:00.903Z,100094.44
2022-09-10T18:46:31.235Z,100097.09
2022-09-10T18:48:58.893Z,100094.66
2022-09-10T18:51:27.664Z,100099.31
2022-09-10T18:53:57.252Z,100093.47
2022-09-10T18:56:27.420Z,100096.47
2022-09-10T18:59:07.108Z,100086.06
2022-09-10T19:01:36.580Z,100089.06
2022-09-10T19:04:06.085Z,100085.00
2022-09-10T19:06:36.114Z,100081.63
2022-09-10T19:09:09.569Z,100076.09
2022-09-10T19:11:42.574Z,100065.56
2022-09-10T19:14:19.196Z,100064.56
2022-09-10T19:16:50.853Z,100064.88
2022-09-10T19:19:30.119Z,100063.22
2022-09-10T19:22:03.686Z,100059.69
2022-09-10T19:24:53.354Z,100054.34
2022-09-10T19:27:17.665Z,100060.34
2022-09-10T19:29:47.228Z,100059.22
2022-09-10T19:32:15.181Z,100058.72
2022-09-10T19:34:42.784Z,100060.94
2022-09-10T19:37:09.910Z,100063.94
2022-09-10T19:39:36.813Z,100072.25
2022-09-10T19:42:04.090Z,100064.50
2022-09-10T19:44:31.003Z,100065.78
2022-09-10T19:46:58.706Z,100067.16
2022-09-10T19:49:25.458Z,100068.41
2022-09-10T19:51:52.411Z,100061.22
2022-09-10T19:54:19.396Z,100061.75
2022-09-10T19:56:46.336Z,100074.31
2022-09-10T19:59:14.554Z,100068.75
2022-09-10T20:01:42.600Z,100071.81
2022-09-10T20:04:11.692Z,100072.50
2022-09-10T20:06:39.194Z,100072.13
2022-09-10T20:09:08.104Z,100077.09
2022-09-10T20:11:35.299Z,100071.91
2022-09-10T20:14:15.946Z,100074.59
2022-09-10T20:16:45.164Z,100070.38
2022-09-10T20:19:14.847Z,100076.28
2022-09-10T20:21:42.348Z,100077.41
2022-09-10T20:24:09.797Z,100078.91
2022-09-10T20:26:38.439Z,100081.34
2022-09-10T20:29:09.351Z,100077.81
2022-09-10T20:31:37.358Z,100082.25
2022-09-10T20:34:07.224Z,100083.22
2022-09-10T20:36:35.684Z,100076.50
2022-09-10T20:39:02.500Z,100074.97
2022-09-10T20:41:32.755Z,100074.59
2022-09-10T20:44:01.317Z,100085.53
2022-09-10T20:46:30.404Z,100080.53
2022-09-10T20:49:03.440Z,100079.56
2022-09-10T20:51:36.443Z,100079.72
2022-09-10T20:54:04.724Z,100080.56
2022-09-10T20:56:32.141Z,100078.78
2022-09-10T20:58:59.869Z,100078.91
2022-09-10T21:01:28.501Z,100071.59
2022-09-10T21:03:59.388Z,100073.44
2022-09-10T21:06:29.091Z,100073.28
2022-09-10T21:08:56.139Z,100073.28
2022-09-10T21:11:24.485Z,100069.78
2022-09-10T21:13:53.634Z,100080.91
2022-09-10T21:16:33.017Z,100080.06
2022-09-10T21:19:09.130Z,100085.78
2022-09-10T21:21:37.174Z,100084.00
2022-09-10T21:24:07.462Z,100071.66
2022-09-10T21:26:36.712Z,100071.50
2022-09-10T21:29:07.296Z,100077.81
2022-09-10T21:31:35.532Z,100080.22
2022-09-10T21:34:03.722Z,100083.31
2022-09-10T21:36:34.643Z,100069.69
2022-09-10T21:39:04.142Z,100062.81
2022-09-10T21:41:42.659Z,100069.13
2022-09-10T21:44:23.227Z,100063.38
2022-09-10T21:46:50.861Z,100070.38
2022-09-10T21:49:18.468Z,100069.97
2022-09-10T21:51:45.346Z,100088.66
2022-09-10T21:54:18.944Z,100101.00
2022-09-10T21:56:46.620Z,100099.31
2022-09-10T21:59:14.585Z,100102.97
2022-09-10T22:01:44.058Z,100098.75
2022-09-10T22:04:11.815Z,100095.13
2022-09-10T22:06:39.017Z,100097.09
2022-09-10T22:09:15.015Z,100097.22
2022-09-10T22:11:46.801Z,100099.59
2022-09-10T22:14:16.977Z,100111.50
2022-09-10T22:16:45.568Z,100108.72
2022-09-10T22:19:15.042Z,100112.09
2022-09-10T22:21:41.947Z,100110.81
2022-09-10T22:24:10.777Z,100115.91
2022-09-10T22:26:42.319Z,100125.72
2022-09-10T22:29:10.257Z,100126.56
2022-09-10T22:31:37.309Z,100138.16
2022-09-10T22:34:07.148Z,100135.94
2022-09-10T22:36:37.299Z,100142.94
2022-09-10T22:39:07.404Z,100141.28
2022-09-10T22:41:36.240Z,100144.63
2022-09-10T22:44:03.852Z,100141.53
2022-09-10T22:46:32.122Z,100145.19
2022-09-10T22:48:59.419Z,100151.06
2022-09-10T22:51:29.247Z,100150.22
2022-09-10T22:53:58.859Z,100148.53
2022-09-10T22:56:26.885Z,100146.56
2022-09-10T22:58:55.650Z,100147.69
2022-09-10T23:01:25.594Z,100154.56
2022-09-10T23:03:52.930Z,100159.06
2022-09-10T23:06:22.079Z,100156.09
2022-09-10T23:08:52.200Z,100146.44
2022-09-10T23:11:21.051Z,100157.75
2022-09-10T23:13:50.288Z,100154.56
2022-09-10T23:16:23.278Z,100150.63
2022-09-10T23:18:53.142Z,100148.94
2022-09-10T23:21:23.412Z,100160.53
2022-09-10T23:23:53.014Z,100160.78
2022-09-10T23:26:20.796Z,100148.84
2022-09-10T23:28:48.406Z,100146.63
2022-09-10T23:31:19.269Z,100142.84
2022-09-10T23:33:52.943Z,100144.97
2022-09-10T23:36:20.620Z,100141.84
2022-09-10T23:38:47.600Z,100139.03
2022-09-10T23:41:16.146Z,100135.22
2022-09-10T23:43:44.341Z,100140.38
2022-09-10T23:46:12.017Z,100129.88
2022-09-10T23:48:39.481Z,100132.13
2022-09-10T23:51:06.895Z,100137.81
2022-09-10T23:53:33.738Z,100139.06
2022-09-10T23:56:02.806Z,100141.72
2022-09-10T23:58:30.275Z,100137.47
